Time,TemperatureF,DewpointF,PressureIn,WindDirection,WindDirectionDegrees,WindSpeedMPH,WindSpeedGustMPH,Humidity,HourlyPrecipIn,Conditions,Clouds,dailyrainin,SoftwareType,DateUTC
2013-01-19 00:01:00,27.9,23.0,30.31,SE,135,0.0,0.0,82,0.00,,,0.00,WUHU216HW,2013-01-19 05:01:00,
2013-01-19 00:06:00,27.9,23.0,30.30,SE,135,0.0,0.0,82,0.00,,,0.00,WUHU216HW,2013-01-19 05:06:00,
2013-01-19 00:11:00,27.9,23.0,30.30,SE,135,0.0,0.0,82,0.00,,,0.00,WUHU216HW,2013-01-19 05:11:00,
2013-01-19 00:16:00,27.7,22.9,30.29,SE,135,0.0,0.0,82,0.00,,,0.00,WUHU216HW,2013-01-19 05:16:00,
2013-01-19 00:21:00,27.7,22.9,30.31,SE,135,0.0,0.0,82,0.00,,,0.00,WUHU216HW,2013-01-19 05:21:00,
2013-01-19 00:26:00,27.7,22.9,30.30,SE,135,0.0,0.0,82,0.00,,,0.00,WUHU216HW,2013-01-19 05:26:00,
2013-01-19 00:31:00,27.7,22.9,30.30,SE,135,0.0,0.0,82,0.00,,,0.00,WUHU216HW,2013-01-19 05:31:00,
2013-01-19 00:36:00,27.7,23.2,30.30,SE,135,0.0,0.0,83,0.00,,,0.00,WUHU216HW,2013-01-19 05:36:00,
2013-01-19 00:41:00,27.7,23.2,30.30,SE,135,0.0,0.0,83,0.00,,,0.00,WUHU216HW,2013-01-19 05:41:00,
2013-01-19 00:46:00,27.5,23.1,30.29,SE,135,0.0,0.0,83,0.00,,,0.00,WUHU216HW,2013-01-19 05:46:00,
2013-01-19 00:51:00,27.4,22.9,30.30,SE,135,0.0,0.0,83,0.00,,,0.00,WUHU216HW,2013-01-19 05:51:00,
2013-01-19 00:56:00,27.4,22.9,30.29,SE,135,0.0,0.0,83,0.00,,,0.00,WUHU216HW,2013-01-19 05:56:00,
2013-01-19 01:01:00,27.4,22.9,30.29,SE,135,0.0,0.0,83,0.00,,,0.00,WUHU216HW,2013-01-19 06:01:00,
2013-01-19 01:06:00,27.4,22.9,30.29,SE,135,0.0,0.0,83,0.00,,,0.00,WUHU216HW,2013-01-19 06:06:00,
2013-01-19 01:12:00,27.2,22.7,30.30,SE,135,0.0,0.0,83,0.00,,,0.00,WUHU216HW,2013-01-19 06:12:00,
2013-01-19 01:17:00,27.2,22.7,30.30,SE,135,0.0,0.0,83,0.00,,,0.00,WUHU216HW,2013-01-19 06:17:00,
2013-01-19 01:22:00,27.0,22.5,30.29,SE,135,0.0,0.0,83,0.00,,,0.00,WUHU216HW,2013-01-19 06:22:00,
2013-01-19 01:27:00,27.0,22.5,30.30,SE,135,0.0,0.0,83,0.00,,,0.00,WUHU216HW,2013-01-19 06:27:00,
2013-01-19 01:32:00,26.8,22.3,30.30,SE,135,0.0,0.0,83,0.00,,,0.00,WUHU216HW,2013-01-19 06:32:00,
2013-01-19 01:37:00,27.0,22.5,30.31,SE,135,0.0,0.0,83,0.00,,,0.00,WUHU216HW,2013-01-19 06:37:00,
2013-01-19 01:42:00,27.0,22.5,30.30,SE,135,0.0,0.0,83,0.00,,,0.00,WUHU216HW,2013-01-19 06:42:00,
2013-01-19 01:47:00,26.8,22.3,30.30,SE,135,0.0,0.0,83,0.00,,,0.00,WUHU216HW,2013-01-19 06:47:00,
2013-01-19 01:52:00,26.8,22.6,30.31,SE,135,0.0,0.0,84,0.00,,,0.00,WUHU216HW,2013-01-19 06:52:00,
2013-01-19 01:57:00,26.8,22.3,30.30,SE,135,0.0,0.0,83,0.00,,,0.00,WUHU216HW,2013-01-19 06:57:00,
2013-01-19 02:02:00,26.8,22.3,30.29,SE,135,0.0,0.0,83,0.00,,,0.00,WUHU216HW,2013-01-19 07:02:00,
2013-01-19 02:07:00,26.6,22.2,30.30,SE,135,0.0,0.0,83,0.00,,,0.00,WUHU216HW,2013-01-19 07:07:00,
2013-01-19 02:12:00,26.6,22.2,30.31,SE,135,0.0,0.0,83,0.00,,,0.00,WUHU216HW,2013-01-19 07:12:00,
2013-01-19 02:17:00,26.6,22.2,30.29,SE,135,0.0,0.0,83,0.00,,,0.00,WUHU216HW,2013-01-19 07:17:00,
2013-01-19 02:22:00,26.5,22.0,30.29,SE,135,0.0,0.0,83,0.00,,,0.00,WUHU216HW,2013-01-19 07:22:00,
2013-01-19 02:27:00,26.5,22.0,30.29,SE,135,0.0,0.0,83,0.00,,,0.00,WUHU216HW,2013-01-19 07:27:00,
2013-01-19 02:32:00,26.3,21.8,30.29,SE,135,0.0,0.0,83,0.00,,,0.00,WUHU216HW,2013-01-19 07:32:00,
2013-01-19 02:37:00,26.3,21.8,30.29,SE,135,0.0,0.0,83,0.00,,,0.00,WUHU216HW,2013-01-19 07:37:00,
2013-01-19 02:42:00,26.3,22.1,30.29,SE,135,0.0,0.0,84,0.00,,,0.00,WUHU216HW,2013-01-19 07:42:00,
2013-01-19 02:47:00,26.3,22.1,30.29,SE,135,0.0,0.0,84,0.00,,,0.00,WUHU216HW,2013-01-19 07:47:00,
2013-01-19 02:52:00,26.1,21.9,30.29,SE,135,0.0,0.0,84,0.00,,,0.00,WUHU216HW,2013-01-19 07:52:00,
2013-01-19 02:57:00,26.1,21.9,30.28,SE,135,0.0,0.4,84,0.00,,,0.00,WUHU216HW,2013-01-19 07:57:00,
2013-01-19 03:02:00,25.9,21.7,30.28,SE,135,0.0,0.4,84,0.00,,,0.00,WUHU216HW,2013-01-19 08:02:00,
2013-01-19 03:07:00,25.9,21.7,30.28,SE,135,0.0,0.2,84,0.00,,,0.00,WUHU216HW,2013-01-19 08:07:00,
2013-01-19 03:12:00,25.9,21.7,30.28,SE,135,0.0,0.2,84,0.00,,,0.00,WUHU216HW,2013-01-19 08:12:00,
2013-01-19 03:17:00,26.1,21.9,30.28,SE,135,0.0,0.0,84,0.00,,,0.00,WUHU216HW,2013-01-19 08:17:00,
2013-01-19 03:22:00,25.9,21.7,30.29,SE,135,0.0,0.4,84,0.00,,,0.00,WUHU216HW,2013-01-19 08:22:00,
2013-01-19 03:27:00,25.9,21.7,30.29,SE,135,0.0,0.4,84,0.00,,,0.00,WUHU216HW,2013-01-19 08:27:00,
2013-01-19 03:32:00,25.7,21.5,30.28,SE,135,0.0,0.0,84,0.00,,,0.00,WUHU216HW,2013-01-19 08:32:00,
2013-01-19 03:37:00,25.7,21.5,30.28,SE,135,0.0,0.2,84,0.00,,,0.00,WUHU216HW,2013-01-19 08:37:00,
2013-01-19 03:42:00,25.9,21.7,30.28,SE,135,0.0,0.4,84,0.00,,,0.00,WUHU216HW,2013-01-19 08:42:00,
2013-01-19 03:47:00,25.9,21.7,30.28,SE,135,0.0,0.4,84,0.00,,,0.00,WUHU216HW,2013-01-19 08:47:00,
2013-01-19 03:52:00,25.9,21.7,30.27,SE,135,0.0,0.0,84,0.00,,,0.00,WUHU216HW,2013-01-19 08:52:00,
2013-01-19 03:57:00,25.7,21.5,30.28,SE,135,0.0,0.0,84,0.00,,,0.00,WUHU216HW,2013-01-19 08:57:00,
2013-01-19 04:02:00,25.6,21.4,30.28,SE,135,0.0,0.0,84,0.00,,,0.00,WUHU216HW,2013-01-19 09:02:00,
2013-01-19 04:08:00,25.6,21.4,30.28,SE,135,0.0,0.0,84,0.00,,,0.00,WUHU216HW,2013-01-19 09:08:00,
2013-01-19 04:15:00,25.6,21.4,30.27,SE,135,0.0,0.0,84,0.00,,,0.00,WUHU216HW,2013-01-19 09:15:00,
2013-01-19 04:22:00,25.4,21.5,30.26,SE,135,0.0,0.0,85,0.00,,,0.00,WUHU216HW,2013-01-19 09:22:00,
2013-01-19 04:28:00,25.2,21.3,30.23,SE,135,0.0,0.0,85,0.00,,,0.00,WUHU216HW,2013-01-19 09:28:00,
2013-01-19 04:35:00,25.2,21.3,30.22,SE,135,0.0,0.0,85,0.00,,,0.00,WUHU216HW,2013-01-19 09:35:00,
2013-01-19 04:50:00,25.2,21.3,30.23,SE,135,0.0,0.0,85,0.00,,,0.00,WUHU216HW,2013-01-19 09:50:00,
2013-01-19 04:55:00,25.2,21.3,30.22,SE,135,0.0,0.0,85,0.00,,,0.00,WUHU216HW,2013-01-19 09:55:00,
2013-01-19 05:00:00,25.2,21.3,30.23,SE,135,0.0,0.0,85,0.00,,,0.00,WUHU216HW,2013-01-19 10:00:00,
2013-01-19 05:05:00,25.2,21.3,30.23,SE,135,0.0,0.0,85,0.00,,,0.00,WUHU216HW,2013-01-19 10:05:00,
2013-01-19 05:10:00,25.2,21.3,30.23,SE,135,0.0,0.0,85,0.00,,,0.00,WUHU216HW,2013-01-19 10:10:00,
2013-01-19 05:15:00,25.2,21.3,30.23,SE,135,0.0,0.0,85,0.00,,,0.00,WUHU216HW,2013-01-19 10:15:00,
2013-01-19 05:20:00,25.0,21.2,30.22,SE,135,0.0,0.0,85,0.00,,,0.00,WUHU216HW,2013-01-19 10:20:00,
2013-01-19 05:25:00,25.0,21.2,30.22,SE,135,0.0,0.0,85,0.00,,,0.00,WUHU216HW,2013-01-19 10:25:00,
2013-01-19 05:30:00,25.0,21.2,30.21,SE,135,0.0,0.0,85,0.00,,,0.00,WUHU216HW,2013-01-19 10:30:00,
2013-01-19 05:35:00,24.8,21.0,30.22,SE,135,0.0,0.0,85,0.00,,,0.00,WUHU216HW,2013-01-19 10:35:00,
2013-01-19 05:40:00,24.8,21.0,30.22,SE,135,0.0,0.0,85,0.00,,,0.00,WUHU216HW,2013-01-19 10:40:00,
2013-01-19 05:45:00,24.8,21.0,30.22,SE,135,0.0,0.0,85,0.00,,,0.00,WUHU216HW,2013-01-19 10:45:00,
2013-01-19 05:50:00,24.7,20.8,30.22,SE,135,0.0,0.0,85,0.00,,,0.00,WUHU216HW,2013-01-19 10:50:00,
2013-01-19 05:55:00,24.5,20.6,30.22,SE,135,0.0,0.0,85,0.00,,,0.00,WUHU216HW,2013-01-19 10:55:00,
2013-01-19 06:00:00,24.5,20.6,30.22,SE,135,0.0,0.0,85,0.00,,,0.00,WUHU216HW,2013-01-19 11:00:00,
2013-01-19 06:05:00,24.3,20.4,30.23,SE,135,0.0,0.0,85,0.00,,,0.00,WUHU216HW,2013-01-19 11:05:00,
2013-01-19 06:10:00,24.3,20.4,30.22,SE,135,0.0,0.0,85,0.00,,,0.00,WUHU216HW,2013-01-19 11:10:00,
2013-01-19 06:15:00,24.3,20.4,30.22,SE,135,0.0,0.0,85,0.00,,,0.00,WUHU216HW,2013-01-19 11:15:00,
2013-01-19 06:21:00,24.5,20.6,30.23,SE,135,0.0,0.0,85,0.00,,,0.00,WUHU216HW,2013-01-19 11:21:00,
2013-01-19 06:34:00,24.3,20.4,30.22,SE,135,0.0,0.0,85,0.00,,,0.00,WUHU216HW,2013-01-19 11:34:00,
2013-01-19 06:54:00,24.1,20.3,30.22,SE,135,0.0,0.0,85,0.00,,,0.00,WUHU216HW,2013-01-19 11:54:00,
2013-01-19 07:00:00,24.1,20.3,30.22,SE,135,0.0,0.0,85,0.00,,,0.00,WUHU216HW,2013-01-19 12:00:00,
2013-01-19 07:06:00,23.9,20.1,30.23,SE,135,0.0,0.0,85,0.00,,,0.00,WUHU216HW,2013-01-19 12:06:00,
2013-01-19 07:13:00,23.9,20.3,30.21,SE,135,0.0,0.0,86,0.00,,,0.00,WUHU216HW,2013-01-19 12:13:00,
2013-01-19 07:20:00,23.8,20.2,30.21,SE,135,0.0,0.0,86,0.00,,,0.00,WUHU216HW,2013-01-19 12:20:00,
2013-01-19 07:26:00,23.8,20.2,30.21,SE,135,0.0,0.0,86,0.00,,,0.00,WUHU216HW,2013-01-19 12:26:00,
2013-01-19 07:32:00,23.8,20.2,30.22,SE,135,0.0,0.0,86,0.00,,,0.00,WUHU216HW,2013-01-19 12:32:00,
2013-01-19 07:47:00,23.6,20.0,30.20,SE,135,0.0,0.0,86,0.00,,,0.00,WUHU216HW,2013-01-19 12:47:00,
2013-01-19 07:48:00,23.6,19.7,30.22,SE,135,0.0,0.0,85,0.00,,,0.00,WUHU216HW,2013-01-19 12:48:00,
2013-01-19 07:57:00,23.4,19.8,30.21,SE,135,0.0,0.0,86,0.00,,,0.00,WUHU216HW,2013-01-19 12:57:00,
2013-01-19 08:02:00,23.4,19.8,30.22,SE,135,0.0,0.0,86,0.00,,,0.00,WUHU216HW,2013-01-19 13:02:00,
2013-01-19 08:07:00,23.4,19.8,30.21,SE,135,0.0,0.0,86,0.00,,,0.00,WUHU216HW,2013-01-19 13:07:00,
2013-01-19 08:12:00,23.6,20.0,30.25,SE,135,0.0,0.0,86,0.00,,,0.00,WUHU216HW,2013-01-19 13:12:00,
2013-01-19 08:17:00,23.6,20.0,30.25,SE,135,0.0,0.0,86,0.00,,,0.00,WUHU216HW,2013-01-19 13:17:00,
2013-01-19 08:22:00,23.6,20.0,30.26,SE,135,0.0,0.0,86,0.00,,,0.00,WUHU216HW,2013-01-19 13:22:00,
2013-01-19 08:27:00,23.6,20.0,30.25,SE,135,0.0,0.0,86,0.00,,,0.00,WUHU216HW,2013-01-19 13:27:00,
2013-01-19 08:32:00,23.8,20.2,30.25,SE,135,0.0,0.0,86,0.00,,,0.00,WUHU216HW,2013-01-19 13:32:00,
2013-01-19 08:37:00,23.9,20.3,30.26,SE,135,0.0,0.0,86,0.00,,,0.00,WUHU216HW,2013-01-19 13:37:00,
2013-01-19 08:42:00,24.1,20.5,30.27,SE,135,0.0,0.0,86,0.00,,,0.00,WUHU216HW,2013-01-19 13:42:00,
2013-01-19 08:47:00,24.1,20.5,30.27,SE,135,0.0,0.0,86,0.00,,,0.00,WUHU216HW,2013-01-19 13:47:00,
2013-01-19 08:52:00,24.3,20.7,30.27,SE,135,0.0,0.0,86,0.00,,,0.00,WUHU216HW,2013-01-19 13:52:00,
2013-01-19 08:57:00,24.7,21.3,30.27,SE,135,0.0,0.0,87,0.00,,,0.00,WUHU216HW,2013-01-19 13:57:00,
2013-01-19 09:02:00,24.8,21.5,30.27,SE,135,0.0,0.0,87,0.00,,,0.00,WUHU216HW,2013-01-19 14:02:00,
2013-01-19 09:07:00,25.2,21.9,30.27,SE,135,0.0,0.0,87,0.00,,,0.00,WUHU216HW,2013-01-19 14:07:00,
2013-01-19 09:12:00,25.6,22.2,30.27,SE,135,0.0,0.0,87,0.00,,,0.00,WUHU216HW,2013-01-19 14:12:00,
2013-01-19 09:17:00,25.9,22.6,30.27,SE,135,0.0,0.0,87,0.00,,,0.00,WUHU216HW,2013-01-19 14:17:00,
2013-01-19 09:22:00,26.3,23.0,30.27,SE,135,0.0,0.0,87,0.00,,,0.00,WUHU216HW,2013-01-19 14:22:00,
2013-01-19 09:27:00,27.0,24.0,30.27,SE,135,0.0,0.0,88,0.00,,,0.00,WUHU216HW,2013-01-19 14:27:00,
2013-01-19 09:32:00,27.4,24.3,30.27,SE,135,0.0,0.0,88,0.00,,,0.00,WUHU216HW,2013-01-19 14:32:00,
2013-01-19 09:37:00,27.7,24.7,30.27,SE,135,0.0,0.0,88,0.00,,,0.00,WUHU216HW,2013-01-19 14:37:00,
2013-01-19 09:42:00,28.3,25.2,30.27,SE,135,0.0,0.0,88,0.00,,,0.00,WUHU216HW,2013-01-19 14:42:00,
2013-01-19 09:47:00,28.8,25.8,30.28,SE,135,0.0,0.0,88,0.00,,,0.00,WUHU216HW,2013-01-19 14:47:00,
2013-01-19 09:52:00,29.5,26.1,30.27,SE,135,0.0,0.0,87,0.00,,,0.00,WUHU216HW,2013-01-19 14:52:00,
2013-01-19 09:57:00,29.9,26.2,30.27,SE,135,0.0,0.0,86,0.00,,,0.00,WUHU216HW,2013-01-19 14:57:00,
2013-01-19 10:02:00,30.6,26.9,30.27,SE,135,0.0,0.0,86,0.00,,,0.00,WUHU216HW,2013-01-19 15:02:00,
2013-01-19 10:07:00,31.5,27.5,30.27,SE,135,0.0,0.0,85,0.00,,,0.00,WUHU216HW,2013-01-19 15:07:00,
2013-01-19 10:12:00,32.2,27.6,30.27,SE,135,0.0,0.0,83,0.00,,,0.00,WUHU216HW,2013-01-19 15:12:00,
2013-01-19 10:17:00,32.9,27.7,30.27,SE,135,0.0,0.0,81,0.00,,,0.00,WUHU216HW,2013-01-19 15:17:00,
2013-01-19 10:22:00,33.8,28.3,30.27,South,180,0.0,0.0,80,0.00,,,0.00,WUHU216HW,2013-01-19 15:22:00,
2013-01-19 10:27:00,34.6,28.4,30.27,South,180,0.0,0.0,78,0.00,,,0.00,WUHU216HW,2013-01-19 15:27:00,
2013-01-19 10:32:00,34.9,27.7,30.27,South,180,0.0,0.0,75,0.00,,,0.00,WUHU216HW,2013-01-19 15:32:00,
2013-01-19 10:37:00,36.2,28.6,30.26,South,180,0.0,0.0,74,0.00,,,0.00,WUHU216HW,2013-01-19 15:37:00,
2013-01-19 10:42:00,37.8,30.6,30.27,SSE,158,0.0,0.0,75,0.00,,,0.00,WUHU216HW,2013-01-19 15:42:00,
2013-01-19 10:47:00,38.9,31.0,30.27,SSE,158,0.0,0.0,73,0.00,,,0.00,WUHU216HW,2013-01-19 15:47:00,
2013-01-19 10:52:00,39.6,31.3,30.26,SSE,158,0.0,0.0,72,0.00,,,0.00,WUHU216HW,2013-01-19 15:52:00,
2013-01-19 10:57:00,39.4,30.1,30.25,SSE,158,0.0,0.0,69,0.00,,,0.00,WUHU216HW,2013-01-19 15:57:00,
2013-01-19 11:02:00,39.4,29.3,30.25,SSE,158,0.0,0.0,67,0.00,,,0.00,WUHU216HW,2013-01-19 16:02:00,
2013-01-19 11:07:00,39.6,26.8,30.26,SSE,158,0.0,0.0,60,0.00,,,0.00,WUHU216HW,2013-01-19 16:07:00,
2013-01-19 11:12:00,40.0,26.3,30.25,SSE,158,0.2,0.2,58,0.00,,,0.00,WUHU216HW,2013-01-19 16:12:00,
2013-01-19 11:17:00,40.1,26.0,30.26,SSE,158,0.0,0.4,57,0.00,,,0.00,WUHU216HW,2013-01-19 16:17:00,
2013-01-19 11:22:00,40.7,25.7,30.24,SSE,158,0.0,0.4,55,0.00,,,0.00,WUHU216HW,2013-01-19 16:22:00,
2013-01-19 11:27:00,41.6,26.6,30.25,West,270,0.4,0.4,55,0.00,,,0.00,WUHU216HW,2013-01-19 16:27:00,
2013-01-19 11:32:00,42.8,26.8,30.25,WSW,248,0.0,0.4,53,0.00,,,0.00,WUHU216HW,2013-01-19 16:32:00,
2013-01-19 11:37:00,43.6,27.1,30.24,NE,45,0.0,0.4,52,0.00,,,0.00,WUHU216HW,2013-01-19 16:37:00,
2013-01-19 11:42:00,43.2,19.8,30.24,NE,45,1.1,1.1,39,0.00,,,0.00,WUHU216HW,2013-01-19 16:42:00,
2013-01-19 11:47:00,43.6,25.1,30.23,SE,135,0.2,1.1,48,0.00,,,0.00,WUHU216HW,2013-01-19 16:47:00,
2013-01-19 11:52:00,43.4,24.4,30.23,SE,135,0.2,0.4,47,0.00,,,0.00,WUHU216HW,2013-01-19 16:52:00,
2013-01-19 11:57:00,43.2,24.3,30.23,SE,135,0.0,0.4,47,0.00,,,0.00,WUHU216HW,2013-01-19 16:57:00,
2013-01-19 12:02:00,43.0,24.7,30.22,SE,135,0.2,0.4,48,0.00,,,0.00,WUHU216HW,2013-01-19 17:02:00,
2013-01-19 12:07:00,43.0,23.6,30.22,North,0,0.2,0.7,46,0.00,,,0.00,WUHU216HW,2013-01-19 17:07:00,
2013-01-19 12:12:00,43.0,23.1,30.21,NNE,23,0.0,0.9,45,0.00,,,0.00,WUHU216HW,2013-01-19 17:12:00,
2013-01-19 12:18:00,43.2,23.8,30.22,ENE,68,0.4,0.9,46,0.00,,,0.00,WUHU216HW,2013-01-19 17:18:00,
2013-01-19 12:23:00,43.2,16.5,30.21,South,180,0.4,0.4,34,0.00,,,0.00,WUHU216HW,2013-01-19 17:23:00,
2013-01-19 12:28:00,43.6,21.3,30.20,NW,315,0.2,2.7,41,0.00,,,0.00,WUHU216HW,2013-01-19 17:28:00,
2013-01-19 12:33:00,43.9,16.5,30.20,North,0,0.4,2.7,33,0.00,,,0.00,WUHU216HW,2013-01-19 17:33:00,
2013-01-19 12:38:00,44.6,19.1,30.20,West,270,0.2,1.1,36,0.00,,,0.00,WUHU216HW,2013-01-19 17:38:00,
2013-01-19 12:43:00,45.4,20.4,30.18,West,270,1.3,1.3,37,0.00,,,0.00,WUHU216HW,2013-01-19 17:43:00,
2013-01-19 12:48:00,46.1,23.0,30.19,WSW,248,0.0,1.3,40,0.00,,,0.00,WUHU216HW,2013-01-19 17:48:00,
2013-01-19 12:53:00,46.4,19.5,30.19,West,270,0.0,1.1,34,0.00,,,0.00,WUHU216HW,2013-01-19 17:53:00,
2013-01-19 12:58:00,47.0,22.6,30.18,WNW,293,0.0,1.1,38,0.00,,,0.00,WUHU216HW,2013-01-19 17:58:00,
2013-01-19 13:03:00,47.5,23.0,30.19,North,0,0.0,0.9,38,0.00,,,0.00,WUHU216HW,2013-01-19 18:03:00,
2013-01-19 13:09:00,47.9,19.4,30.19,SW,225,1.3,1.3,32,0.00,,,0.00,WUHU216HW,2013-01-19 18:09:00,
2013-01-19 13:14:00,47.7,19.9,30.18,West,270,0.4,1.8,33,0.00,,,0.00,WUHU216HW,2013-01-19 18:14:00,
2013-01-19 13:19:00,48.2,21.1,30.17,NW,315,0.4,1.8,34,0.00,,,0.00,WUHU216HW,2013-01-19 18:19:00,
2013-01-19 13:24:00,49.7,21.5,30.17,WSW,248,0.7,2.5,33,0.00,,,0.00,WUHU216HW,2013-01-19 18:24:00,
2013-01-19 13:29:00,51.1,21.4,30.13,ESE,113,1.1,2.5,31,0.00,,,0.00,WUHU216HW,2013-01-19 18:29:00,
2013-01-19 13:34:00,51.1,20.8,30.14,SE,135,0.9,1.6,30,0.00,,,0.00,WUHU216HW,2013-01-19 18:34:00,
2013-01-19 13:39:00,49.9,21.1,30.12,SW,225,1.6,2.5,32,0.00,,,0.00,WUHU216HW,2013-01-19 18:39:00,
2013-01-19 13:45:00,48.4,22.5,30.11,West,270,0.4,2.5,36,0.00,,,0.00,WUHU216HW,2013-01-19 18:45:00,
2013-01-19 13:50:00,48.4,22.5,30.11,East,90,0.7,0.7,36,0.00,,,0.00,WUHU216HW,2013-01-19 18:50:00,
2013-01-19 13:55:00,47.9,23.4,30.15,ESE,113,0.4,1.1,38,0.00,,,0.00,WUHU216HW,2013-01-19 18:55:00,
2013-01-19 14:00:00,48.2,23.1,30.15,SE,135,0.4,1.8,37,0.00,,,0.00,WUHU216HW,2013-01-19 19:00:00,
2013-01-19 14:05:00,47.9,24.0,30.15,WNW,293,0.0,1.8,39,0.00,,,0.00,WUHU216HW,2013-01-19 19:05:00,
2013-01-19 14:10:00,48.2,23.7,30.15,NE,45,0.9,1.1,38,0.00,,,0.00,WUHU216HW,2013-01-19 19:10:00,
2013-01-19 14:15:00,48.8,24.9,30.15,West,270,0.0,0.9,39,0.00,,,0.00,WUHU216HW,2013-01-19 19:15:00,
2013-01-19 14:20:00,49.7,24.9,30.15,SSW,203,0.4,0.9,38,0.00,,,0.00,WUHU216HW,2013-01-19 19:20:00,
2013-01-19 14:25:00,50.2,26.8,30.15,WSW,248,0.2,0.9,40,0.00,,,0.00,WUHU216HW,2013-01-19 19:25:00,
2013-01-19 14:30:00,49.9,25.1,30.15,NW,315,0.4,1.1,38,0.00,,,0.00,WUHU216HW,2013-01-19 19:30:00,
2013-01-19 14:35:00,49.3,22.6,30.15,West,270,1.6,1.6,35,0.00,,,0.00,WUHU216HW,2013-01-19 19:35:00,
2013-01-19 14:40:00,48.6,22.0,30.14,WSW,248,0.2,1.6,35,0.00,,,0.00,WUHU216HW,2013-01-19 19:40:00,
2013-01-19 14:45:00,48.8,24.1,30.14,West,270,0.4,1.8,38,0.00,,,0.00,WUHU216HW,2013-01-19 19:45:00,
2013-01-19 14:51:00,48.8,24.1,30.13,SE,135,0.2,1.8,38,0.00,,,0.00,WUHU216HW,2013-01-19 19:51:00,
2013-01-19 14:58:00,49.3,25.3,30.14,West,270,0.0,1.8,39,0.00,,,0.00,WUHU216HW,2013-01-19 19:58:00,
2013-01-19 15:07:00,50.9,27.5,30.13,NW,315,0.0,1.8,40,0.00,,,0.00,WUHU216HW,2013-01-19 20:07:00,
2013-01-19 15:12:00,53.6,29.9,30.14,SE,135,0.2,0.4,40,0.00,,,0.00,WUHU216HW,2013-01-19 20:12:00,
2013-01-19 15:17:00,54.4,27.7,30.13,NW,315,0.2,1.1,36,0.00,,,0.00,WUHU216HW,2013-01-19 20:17:00,
2013-01-19 15:22:00,53.1,24.0,30.13,ESE,113,0.4,1.1,32,0.00,,,0.00,WUHU216HW,2013-01-19 20:22:00,
2013-01-19 15:27:00,51.3,25.8,30.13,WNW,293,1.1,1.1,37,0.00,,,0.00,WUHU216HW,2013-01-19 20:27:00,
2013-01-19 15:32:00,51.7,26.7,30.12,NNW,338,0.7,1.1,38,0.00,,,0.00,WUHU216HW,2013-01-19 20:32:00,
2013-01-19 15:37:00,52.0,27.1,30.13,West,270,0.2,0.7,38,0.00,,,0.00,WUHU216HW,2013-01-19 20:37:00,
2013-01-19 15:43:00,51.5,25.2,30.12,WNW,293,0.7,1.6,36,0.00,,,0.00,WUHU216HW,2013-01-19 20:43:00,
2013-01-19 15:48:00,50.8,23.2,30.12,SE,135,1.3,1.6,34,0.00,,,0.00,WUHU216HW,2013-01-19 20:48:00,
2013-01-19 15:53:00,49.1,24.5,30.13,South,180,0.4,2.0,38,0.00,,,0.00,WUHU216HW,2013-01-19 20:53:00,
2013-01-19 15:58:00,49.0,25.7,30.12,SW,225,0.2,2.0,40,0.00,,,0.00,WUHU216HW,2013-01-19 20:58:00,
2013-01-19 16:03:00,48.8,25.5,30.13,WSW,248,0.7,1.1,40,0.00,,,0.00,WUHU216HW,2013-01-19 21:03:00,
2013-01-19 16:08:00,48.4,25.2,30.12,SSW,203,0.4,2.0,40,0.00,,,0.00,WUHU216HW,2013-01-19 21:08:00,
2013-01-19 16:13:00,48.2,25.0,30.13,West,270,0.2,2.2,40,0.00,,,0.00,WUHU216HW,2013-01-19 21:13:00,
2013-01-19 16:18:00,48.2,26.6,30.13,South,180,0.0,2.2,43,0.00,,,0.00,WUHU216HW,2013-01-19 21:18:00,
2013-01-19 16:23:00,49.1,27.5,30.12,WNW,293,1.1,1.1,43,0.00,,,0.00,WUHU216HW,2013-01-19 21:23:00,
2013-01-19 16:29:00,49.3,27.1,30.12,WNW,293,0.0,1.1,42,0.00,,,0.00,WUHU216HW,2013-01-19 21:29:00,
2013-01-19 16:34:00,49.1,27.5,30.12,SSE,158,0.0,0.7,43,0.00,,,0.00,WUHU216HW,2013-01-19 21:34:00,
2013-01-19 16:39:00,48.2,26.6,30.12,SSE,158,0.0,0.4,43,0.00,,,0.00,WUHU216HW,2013-01-19 21:39:00,
2013-01-19 16:44:00,47.9,26.3,30.13,ENE,68,0.4,0.4,43,0.00,,,0.00,WUHU216HW,2013-01-19 21:44:00,
2013-01-19 16:50:00,48.2,26.6,30.12,NW,315,0.9,1.1,43,0.00,,,0.00,WUHU216HW,2013-01-19 21:50:00,
2013-01-19 16:55:00,47.3,25.8,30.12,SSE,158,0.0,1.8,43,0.00,,,0.00,WUHU216HW,2013-01-19 21:55:00,
2013-01-19 17:00:00,47.2,27.3,30.12,SSE,158,0.0,1.8,46,0.00,,,0.00,WUHU216HW,2013-01-19 22:00:00,
2013-01-19 17:05:00,47.0,26.6,30.12,NNE,23,0.0,0.4,45,0.00,,,0.00,WUHU216HW,2013-01-19 22:05:00,
2013-01-19 17:10:00,46.4,25.6,30.13,SSW,203,0.0,1.1,44,0.00,,,0.00,WUHU216HW,2013-01-19 22:10:00,
2013-01-19 17:15:00,46.3,26.5,30.12,SSW,203,0.0,1.1,46,0.00,,,0.00,WUHU216HW,2013-01-19 22:15:00,
2013-01-19 17:21:00,45.9,26.7,30.12,SSW,203,0.0,0.4,47,0.00,,,0.00,WUHU216HW,2013-01-19 22:21:00,
2013-01-19 17:26:00,45.4,26.2,30.12,SW,225,0.0,0.4,47,0.00,,,0.00,WUHU216HW,2013-01-19 22:26:00,
2013-01-19 17:31:00,44.8,25.8,30.12,SW,225,0.0,0.4,47,0.00,,,0.00,WUHU216HW,2013-01-19 22:31:00,
2013-01-19 17:36:00,44.3,25.7,30.11,SSW,203,0.0,0.2,48,0.00,,,0.00,WUHU216HW,2013-01-19 22:36:00,
2013-01-19 17:42:00,43.7,25.8,30.12,SSW,203,0.0,0.2,49,0.00,,,0.00,WUHU216HW,2013-01-19 22:42:00,
2013-01-19 17:47:00,43.0,25.2,30.12,SSW,203,0.0,0.4,49,0.00,,,0.00,WUHU216HW,2013-01-19 22:47:00,
2013-01-19 17:52:00,42.1,24.3,30.12,WSW,248,0.7,1.3,49,0.00,,,0.00,WUHU216HW,2013-01-19 22:52:00,
2013-01-19 17:57:00,41.4,23.6,30.12,WNW,293,0.7,1.3,49,0.00,,,0.00,WUHU216HW,2013-01-19 22:57:00,
2013-01-19 18:02:00,40.9,24.0,30.12,WSW,248,1.1,1.6,51,0.00,,,0.00,WUHU216HW,2013-01-19 23:02:00,
2013-01-19 18:07:00,40.7,23.9,30.12,South,180,1.6,1.6,51,0.00,,,0.00,WUHU216HW,2013-01-19 23:07:00,
2013-01-19 18:12:00,40.3,23.6,30.12,SW,225,1.3,1.6,51,0.00,,,0.00,WUHU216HW,2013-01-19 23:12:00,
2013-01-19 18:17:00,40.3,24.0,30.12,SW,225,0.9,1.3,52,0.00,,,0.00,WUHU216HW,2013-01-19 23:17:00,
2013-01-19 18:23:00,40.0,23.7,30.07,SW,225,0.4,1.3,52,0.00,,,0.00,WUHU216HW,2013-01-19 23:23:00,
2013-01-19 18:28:00,39.8,23.5,30.08,West,270,0.0,1.1,52,0.00,,,0.00,WUHU216HW,2013-01-19 23:28:00,
2013-01-19 18:33:00,39.4,23.6,30.09,NW,315,0.0,1.1,53,0.00,,,0.00,WUHU216HW,2013-01-19 23:33:00,
2013-01-19 18:38:00,39.2,23.9,30.09,NW,315,0.0,0.0,54,0.00,,,0.00,WUHU216HW,2013-01-19 23:38:00,
2013-01-19 18:43:00,38.9,23.6,30.08,NW,315,0.0,0.0,54,0.00,,,0.00,WUHU216HW,2013-01-19 23:43:00,
2013-01-19 18:48:00,38.7,23.4,30.08,East,90,0.0,0.4,54,0.00,,,0.00,WUHU216HW,2013-01-19 23:48:00,
2013-01-19 18:53:00,38.5,24.1,30.08,East,90,0.0,0.4,56,0.00,,,0.00,WUHU216HW,2013-01-19 23:53:00,
2013-01-19 18:58:00,38.0,24.0,30.08,East,90,0.0,0.0,57,0.00,,,0.00,WUHU216HW,2013-01-19 23:58:00,
2013-01-19 19:04:00,37.6,23.7,30.09,East,90,0.0,0.0,57,0.00,,,0.00,WUHU216HW,2013-01-20 00:04:00,
2013-01-19 19:09:00,37.3,23.9,30.08,East,90,0.0,0.0,58,0.00,,,0.00,WUHU216HW,2013-01-20 00:09:00,
2013-01-19 19:14:00,37.1,23.7,30.08,West,270,0.7,0.7,58,0.00,,,0.00,WUHU216HW,2013-01-20 00:14:00,
2013-01-19 19:19:00,37.1,24.1,30.10,West,270,0.0,0.7,59,0.00,,,0.00,WUHU216HW,2013-01-20 00:19:00,
2013-01-19 19:24:00,36.5,24.0,30.09,West,270,0.0,0.0,60,0.00,,,0.00,WUHU216HW,2013-01-20 00:24:00,
2013-01-19 19:30:00,36.4,23.9,30.09,NW,315,0.0,0.0,60,0.00,,,0.00,WUHU216HW,2013-01-20 00:30:00,
2013-01-19 19:35:00,35.8,24.1,30.08,NW,315,0.0,0.0,62,0.00,,,0.00,WUHU216HW,2013-01-20 00:35:00,
2013-01-19 19:40:00,35.5,23.4,30.09,NW,315,0.0,0.0,61,0.00,,,0.00,WUHU216HW,2013-01-20 00:40:00,
2013-01-19 19:45:00,34.9,23.2,30.08,NW,315,0.0,0.0,62,0.00,,,0.00,WUHU216HW,2013-01-20 00:45:00,
2013-01-19 19:50:00,34.7,23.8,30.09,NW,315,0.0,0.0,64,0.00,,,0.00,WUHU216HW,2013-01-20 00:50:00,
2013-01-19 19:55:00,34.2,23.2,30.08,NW,315,0.0,0.0,64,0.00,,,0.00,WUHU216HW,2013-01-20 00:55:00,
2013-01-19 20:00:00,34.0,23.4,30.08,NW,315,0.0,0.0,65,0.00,,,0.00,WUHU216HW,2013-01-20 01:00:00,
2013-01-19 20:05:00,33.7,23.4,30.08,NW,315,0.0,0.0,66,0.00,,,0.00,WUHU216HW,2013-01-20 01:05:00,
2013-01-19 20:10:00,33.1,23.3,30.09,NW,315,0.0,0.0,67,0.00,,,0.00,WUHU216HW,2013-01-20 01:10:00,
2013-01-19 20:15:00,32.8,23.0,30.08,NW,315,0.0,0.0,67,0.00,,,0.00,WUHU216HW,2013-01-20 01:15:00,
2013-01-19 20:20:00,32.8,23.0,30.08,NW,315,0.0,0.0,67,0.00,,,0.00,WUHU216HW,2013-01-20 01:20:00,
2013-01-19 20:25:00,32.6,23.1,30.07,NW,315,0.0,0.0,68,0.00,,,0.00,WUHU216HW,2013-01-20 01:25:00,
2013-01-19 20:30:00,32.4,23.4,30.07,NW,315,0.0,0.0,69,0.00,,,0.00,WUHU216HW,2013-01-20 01:30:00,
2013-01-19 20:35:00,32.4,23.4,30.08,NW,315,0.0,0.0,69,0.00,,,0.00,WUHU216HW,2013-01-20 01:35:00,
2013-01-19 20:40:00,32.2,23.2,30.07,NW,315,0.0,0.0,69,0.00,,,0.00,WUHU216HW,2013-01-20 01:40:00,
2013-01-19 20:45:00,32.2,23.2,30.08,NW,315,0.0,0.0,69,0.00,,,0.00,WUHU216HW,2013-01-20 01:45:00,
2013-01-19 20:51:00,32.0,23.4,30.08,NW,315,0.0,0.0,70,0.00,,,0.00,WUHU216HW,2013-01-20 01:51:00,
2013-01-19 20:56:00,32.0,23.0,30.07,NNW,338,0.0,0.2,69,0.00,,,0.00,WUHU216HW,2013-01-20 01:56:00,
2013-01-19 21:01:00,32.0,23.4,30.07,NNW,338,0.0,0.2,70,0.00,,,0.00,WUHU216HW,2013-01-20 02:01:00,
2013-01-19 21:07:00,31.9,23.2,30.07,NNW,338,0.0,0.0,70,0.00,,,0.00,WUHU216HW,2013-01-20 02:07:00,
2013-01-19 21:12:00,31.5,23.5,30.07,NNW,338,0.0,0.0,72,0.00,,,0.00,WUHU216HW,2013-01-20 02:12:00,
2013-01-19 21:17:00,31.5,23.5,30.07,East,90,0.0,0.2,72,0.00,,,0.00,WUHU216HW,2013-01-20 02:17:00,
2013-01-19 21:22:00,31.3,23.3,30.07,SE,135,0.0,0.7,72,0.00,,,0.00,WUHU216HW,2013-01-20 02:22:00,
2013-01-19 21:27:00,31.1,23.5,30.07,SE,135,0.0,0.7,73,0.00,,,0.00,WUHU216HW,2013-01-20 02:27:00,
2013-01-19 21:32:00,31.3,23.7,30.07,ESE,113,0.0,0.7,73,0.00,,,0.00,WUHU216HW,2013-01-20 02:32:00,
2013-01-19 21:37:00,31.3,23.7,30.07,West,270,0.0,1.1,73,0.00,,,0.00,WUHU216HW,2013-01-20 02:37:00,
2013-01-19 21:42:00,31.3,23.7,30.07,SE,135,0.0,1.1,73,0.00,,,0.00,WUHU216HW,2013-01-20 02:42:00,
2013-01-19 21:47:00,31.1,23.5,30.05,SE,135,0.0,0.4,73,0.00,,,0.00,WUHU216HW,2013-01-20 02:47:00,
2013-01-19 21:53:00,31.3,23.7,30.06,SE,135,0.0,0.4,73,0.00,,,0.00,WUHU216HW,2013-01-20 02:53:00,
2013-01-19 21:58:00,31.3,23.3,30.07,ESE,113,0.0,1.1,72,0.00,,,0.00,WUHU216HW,2013-01-20 02:58:00,
2013-01-19 22:03:00,31.3,23.3,30.06,NNE,23,0.0,1.1,72,0.00,,,0.00,WUHU216HW,2013-01-20 03:03:00,
2013-01-19 22:08:00,31.3,23.3,30.06,NW,315,0.0,0.2,72,0.00,,,0.00,WUHU216HW,2013-01-20 03:08:00,
2013-01-19 22:13:00,31.5,22.9,30.06,East,90,0.4,0.4,70,0.00,,,0.00,WUHU216HW,2013-01-20 03:13:00,
2013-01-19 22:19:00,32.6,21.7,30.07,WNW,293,0.0,0.4,64,0.00,,,0.00,WUHU216HW,2013-01-20 03:19:00,
2013-01-19 22:24:00,34.6,21.7,30.06,WNW,293,0.4,0.4,59,0.00,,,0.00,WUHU216HW,2013-01-20 03:24:00,
2013-01-19 22:29:00,35.5,21.8,30.06,SSW,203,0.0,0.4,57,0.00,,,0.00,WUHU216HW,2013-01-20 03:29:00,
2013-01-19 22:34:00,36.0,21.0,30.05,South,180,0.0,0.4,54,0.00,,,0.00,WUHU216HW,2013-01-20 03:34:00,
2013-01-19 22:39:00,36.4,20.9,30.05,West,270,0.0,0.4,53,0.00,,,0.00,WUHU216HW,2013-01-20 03:39:00,
2013-01-19 22:44:00,36.0,21.0,30.06,WNW,293,0.0,0.4,54,0.00,,,0.00,WUHU216HW,2013-01-20 03:44:00,
2013-01-19 22:50:00,35.6,20.2,30.05,SW,225,0.0,0.4,53,0.00,,,0.00,WUHU216HW,2013-01-20 03:50:00,
2013-01-19 22:55:00,35.6,20.2,30.05,SE,135,0.0,0.4,53,0.00,,,0.00,WUHU216HW,2013-01-20 03:55:00,
2013-01-19 23:00:00,35.6,20.2,30.05,ESE,113,0.0,0.9,53,0.00,,,0.00,WUHU216HW,2013-01-20 04:00:00,
2013-01-19 23:05:00,35.5,20.4,30.05,ESE,113,0.0,1.1,54,0.00,,,0.00,WUHU216HW,2013-01-20 04:05:00,
2013-01-19 23:10:00,35.1,20.1,30.05,ESE,113,0.0,1.1,54,0.00,,,0.00,WUHU216HW,2013-01-20 04:10:00,
2013-01-19 23:15:00,34.9,20.3,30.05,ESE,113,0.0,0.0,55,0.00,,,0.00,WUHU216HW,2013-01-20 04:15:00,
2013-01-19 23:20:00,34.7,20.6,30.08,ESE,113,0.0,0.0,56,0.00,,,0.00,WUHU216HW,2013-01-20 04:20:00,
2013-01-19 23:25:00,34.6,20.0,30.08,ENE,68,0.4,0.4,55,0.00,,,0.00,WUHU216HW,2013-01-20 04:25:00,
2013-01-19 23:30:00,34.2,20.1,30.08,West,270,0.0,1.1,56,0.00,,,0.00,WUHU216HW,2013-01-20 04:30:00,
2013-01-19 23:35:00,34.4,20.3,30.08,West,270,0.0,1.1,56,0.00,,,0.00,WUHU216HW,2013-01-20 04:35:00,
2013-01-19 23:40:00,34.2,20.5,30.08,WNW,293,0.2,0.4,57,0.00,,,0.00,WUHU216HW,2013-01-20 04:40:00,
2013-01-19 23:45:00,33.8,20.2,30.08,WNW,293,0.0,0.4,57,0.00,,,0.00,WUHU216HW,2013-01-20 04:45:00,
2013-01-19 23:50:00,33.5,19.8,30.08,NW,315,0.0,0.4,57,0.00,,,0.00,WUHU216HW,2013-01-20 04:50:00,
2013-01-19 23:55:00,33.7,19.5,30.07,NW,315,0.0,0.4,56,0.00,,,0.00,WUHU216HW,2013-01-20 04:55:00,